Impacts TAF Board INFO
FOR SITUATIONAL AWARENESS. NOT TO BE USED FOR FLIGHT PLANNING PURPOSES.
IDs:

KLAS - Las Vegas/McCarran I, NV, US

Issued at 1733 UTC 19 Jan 2018
Updated at 1925 UTC 19 Jan 2018
Potential Impact None Slight Moderate High
Time<<20/08Z 20/09Z 20/10Z 20/11Z 20/12Z 20/13Z 20/14Z 20/15Z 20/16Z 20/17Z 20/18Z 20/19Z 20/20Z>>
Type PRVL PRVL PRVL PRVL PRVL PRVL PRVL PRVL PRVL PRVL PRVL PRVL PRVL
VIS >6 >6 >6 >6 >6 >6 >6 >6 >6 >6 >6 >6 >6
CIG 150 150 -- -- 150 150 150 150 150 150 150 150 150
Cover BKN BKN SCT SCT BKN BKN BKN BKN BKN BKN BKN BKN BKN
FltCat VFR VFR VFR VFR VFR VFR VFR VFR VFR VFR VFR VFR VFR
WX -- -- -- -- -- -- -- -- -- -- -- -- --
WDir 230 230 250 250 260 260 260 260 260 310 310 310 310
WSpd 17 17 14 14 8 8 8 8 8 15 15 15 15
WGst 26 26 -- -- -- -- -- -- -- 24 24 24 24

Raw TAF
KLAS 191733Z 1918/2024 VRB05KT P6SM FEW180 BKN250
  FM192000 20012G20KT P6SM FEW180 BKN250
  FM192200 21015G25KT P6SM SCT180 BKN250
  FM200500 23017G26KT P6SM SCT070 BKN150
  FM201000 25014KT P6SM SCT100 SCT150
  FM201200 26008KT P6SM SCT120 BKN150
  FM201700 31015G24KT P6SM SCT012 BKN150
  FM202100 32018G28KT P6SM BKN150


METAR Board
Radar Display
Forecast Discussion

FOR SITUATIONAL AWARENESS. NOT TO BE USED FOR FLIGHT PLANNING PURPOSES.